Time;durP1;ratioP1;P1;durP2;ratioP2;P2;SDS_P1;SDS_P2;PMS_P1;PMS_P2;Temp;Humidity;BMP_temperature;BMP_pressure;BME280_temperature;BME280_humidity;BME280_pressure;Samples;Min_cycle;Max_cycle;Signal;HPM_P1;HPM_P2
2022/01/12 00:01:37;;;;;;;36.37;20.50;;;1.70;99.90;;;;;;5053195;28;20440;-88
2022/01/12 00:04:10;;;;;;;40.80;21.27;;;1.60;99.90;;;;;;5052757;28;20943;-89
2022/01/12 00:06:43;;;;;;;35.17;19.30;;;1.60;99.90;;;;;;5056466;28;20482;-89
2022/01/12 00:09:15;;;;;;;37.20;21.70;;;1.50;99.90;;;;;;5056797;28;20450;-88
2022/01/12 00:11:48;;;;;;;42.55;28.73;;;1.70;99.90;;;;;;5055931;28;20452;-88
2022/01/12 00:14:21;;;;;;;39.07;22.77;;;1.90;99.90;;;;;;5056909;28;20677;-87
2022/01/12 00:16:51;;;;;;;39.43;22.43;;;2.00;99.90;;;;;;5056796;28;20743;-89
2022/01/12 00:19:22;;;;;;;37.27;21.07;;;2.00;99.90;;;;;;5056782;28;20475;-88
2022/01/12 00:21:56;;;;;;;38.33;20.87;;;1.90;99.90;;;;;;5056596;28;20451;-88
2022/01/12 00:24:26;;;;;;;34.00;20.57;;;2.00;99.90;;;;;;5038869;28;20454;-89
2022/01/12 00:35:19;;;;;;;38.93;22.03;;;2.30;99.90;;;;;;5056435;28;20423;-88
2022/01/12 00:37:47;;;;;;;37.27;22.17;;;2.30;99.90;;;;;;5056356;28;20451;-89
2022/01/12 00:40:14;;;;;;;39.17;21.77;;;2.40;99.90;;;;;;5056671;28;20628;-88
2022/01/12 00:42:44;;;;;;;36.63;21.47;;;2.40;99.90;;;;;;5056332;28;20459;-89
2022/01/12 00:45:12;;;;;;;44.03;23.30;;;2.50;99.90;;;;;;5038567;28;20443;-89
2022/01/12 00:47:42;;;;;;;38.80;22.17;;;2.50;99.90;;;;;;5056449;28;20555;-90
2022/01/12 00:50:09;;;;;;;38.87;23.03;;;2.50;99.90;;;;;;5055934;28;20499;-89
2022/01/12 00:52:42;;;;;;;46.63;30.67;;;2.30;99.90;;;;;;5055334;28;20943;-88
2022/01/12 00:55:15;;;;;;;42.83;25.33;;;2.40;99.90;;;;;;5056348;28;20448;-89
2022/01/12 00:57:42;;;;;;;42.00;22.10;;;2.40;99.90;;;;;;5055978;28;20454;-88
2022/01/12 01:00:13;;;;;;;42.83;24.60;;;2.40;99.90;;;;;;5056080;28;20462;-89
2022/01/12 01:02:42;;;;;;;45.47;25.50;;;2.30;99.90;;;;;;5055911;28;20428;-88
2022/01/12 01:05:10;;;;;;;43.73;24.77;;;2.30;99.90;;;;;;5055937;28;20452;-88
2022/01/12 01:07:38;;;;;;;43.40;23.57;;;2.20;99.90;;;;;;5055947;28;20814;-85
2022/01/12 01:10:13;;;;;;;44.50;24.07;;;2.20;99.90;;;;;;5055454;28;20479;-88
2022/01/12 01:12:40;;;;;;;49.08;29.15;;;2.30;99.90;;;;;;5054338;28;20475;-89
2022/01/12 01:15:14;;;;;;;47.20;26.23;;;2.30;99.90;;;;;;5055412;28;20197;-88
2022/01/12 01:26:08;;;;;;;46.57;25.27;;;1.90;99.90;;;;;;4994025;28;20526;-86
2022/01/12 01:28:35;;;;;;;43.83;22.50;;;1.90;99.90;;;;;;4994111;28;20505;-88
2022/01/12 01:31:07;;;;;;;43.50;23.57;;;2.00;99.90;;;;;;5041455;28;20486;-89
2022/01/12 01:33:39;;;;;;;50.78;30.63;;;1.90;99.90;;;;;;5055127;28;20441;-89
2022/01/12 01:36:09;;;;;;;47.00;25.83;;;1.90;99.90;;;;;;5055348;28;20191;-88
2022/01/12 01:38:36;;;;;;;43.03;23.10;;;2.10;99.90;;;;;;5055199;28;20435;-88
2022/01/12 01:41:05;;;;;;;44.93;25.00;;;2.10;99.90;;;;;;5037508;28;20478;-87
2022/01/12 01:43:53;;;;;;;41.60;24.00;;;1.90;99.90;;;;;;5055261;28;20424;-87
2022/01/12 01:54:37;;;;;;;47.80;30.30;;;1.90;99.90;;;;;;5021449;28;20417;-91
2022/01/12 01:57:07;;;;;;;43.90;25.27;;;2.00;99.90;;;;;;5055020;28;20206;-88
2022/01/12 01:59:35;;;;;;;42.87;24.23;;;1.90;99.90;;;;;;5054671;28;20448;-88
2022/01/12 02:02:06;;;;;;;44.40;23.87;;;2.00;99.90;;;;;;5054903;28;20861;-87
2022/01/12 02:04:36;;;;;;;41.80;23.30;;;2.00;99.90;;;;;;5054596;28;20443;-87
2022/01/12 02:07:04;;;;;;;46.43;24.37;;;2.10;99.90;;;;;;5054723;28;20452;-87
2022/01/12 02:09:34;;;;;;;46.13;23.90;;;2.20;99.90;;;;;;5054565;28;20538;-87
2022/01/12 02:12:02;;;;;;;43.10;23.97;;;2.10;99.90;;;;;;5054891;28;20478;-87
2022/01/12 02:14:29;;;;;;;44.13;24.55;;;2.10;99.90;;;;;;5054359;28;20429;-87
2022/01/12 02:17:07;;;;;;;48.70;25.23;;;2.10;99.90;;;;;;5054955;28;20219;-87
2022/01/12 02:19:55;;;;;;;47.83;24.83;;;2.00;99.90;;;;;;5054290;28;20443;-90
2022/01/12 02:36:30;;;;;;;54.80;24.57;;;2.10;99.90;;;;;;5054246;28;20512;-88
2022/01/12 02:42:05;;;;;;;52.53;24.47;;;2.10;99.90;;;;;;5054417;28;20415;-87
2022/01/12 02:55:46;;;;;;;47.43;25.37;;;2.20;99.90;;;;;;5053806;28;20418;-90
2022/01/12 02:58:18;;;;;;;48.23;24.30;;;2.20;99.90;;;;;;5054019;28;20526;-89
2022/01/12 03:01:05;;;;;;;47.57;25.23;;;2.10;99.90;;;;;;5054054;28;20515;-89
2022/01/12 03:03:36;;;;;;;44.83;24.40;;;2.20;99.90;;;;;;5053181;28;20483;-88
2022/01/12 03:06:07;;;;;;;45.20;23.67;;;2.30;99.90;;;;;;5054039;28;20543;-87
2022/01/12 03:08:40;;;;;;;50.37;25.37;;;2.40;99.90;;;;;;5036168;28;20431;-88
2022/01/12 03:11:17;;;;;;;47.40;24.40;;;2.40;99.90;;;;;;5053931;28;20475;-86
2022/01/12 03:13:44;;;;;;;49.33;25.43;;;2.60;99.90;;;;;;5053611;28;20454;-86
2022/01/12 03:16:14;;;;;;;45.27;24.83;;;2.60;99.90;;;;;;5053226;28;20444;-89
2022/01/12 03:18:44;;;;;;;66.37;38.40;;;2.70;99.90;;;;;;5034284;28;20487;-87
2022/01/12 03:21:14;;;;;;;52.67;27.50;;;2.80;99.90;;;;;;5053909;28;20452;-86
2022/01/12 03:23:48;;;;;;;52.50;26.87;;;2.80;99.90;;;;;;5053453;28;20428;-88
2022/01/12 03:26:25;;;;;;;51.57;25.67;;;2.70;99.90;;;;;;5053860;28;20793;-88
2022/01/12 03:28:54;;;;;;;48.90;24.67;;;2.80;99.90;;;;;;5053401;28;20456;-87
2022/01/12 03:31:24;;;;;;;50.90;25.57;;;2.70;99.90;;;;;;5053160;28;20494;-87
2022/01/12 03:34:05;;;;;;;49.10;26.03;;;2.60;99.90;;;;;;5052336;28;20501;-86
2022/01/12 03:36:53;;;;;;;45.97;24.17;;;2.60;99.90;;;;;;5053372;28;20447;-87
2022/01/12 03:39:22;;;;;;;60.47;35.13;;;2.60;99.90;;;;;;5052241;28;20429;-88
2022/01/12 03:41:54;;;;;;;52.37;27.27;;;2.70;99.90;;;;;;5057510;28;20222;-89
2022/01/12 03:44:22;;;;;;;50.73;26.30;;;2.50;99.90;;;;;;5057504;28;20444;-86
2022/01/12 03:46:53;;;;;;;45.93;26.10;;;2.60;99.90;;;;;;5039508;28;20448;-87
2022/01/12 03:49:23;;;;;;;47.90;25.67;;;2.60;99.90;;;;;;5057452;28;20491;-86
2022/01/12 03:51:53;;;;;;;45.33;23.50;;;2.70;99.90;;;;;;5057734;28;20510;-88
2022/01/12 03:54:24;;;;;;;50.40;25.93;;;2.80;99.90;;;;;;5057615;28;20451;-88
2022/01/12 03:56:53;;;;;;;50.07;25.33;;;2.90;99.90;;;;;;5057495;28;20457;-85
2022/01/12 03:59:21;;;;;;;43.40;24.07;;;2.80;99.90;;;;;;5056978;28;20447;-87
2022/01/12 04:01:49;;;;;;;46.53;25.00;;;2.70;99.90;;;;;;5057286;28;20448;-87
2022/01/12 04:04:29;;;;;;;52.50;26.40;;;2.60;99.90;;;;;;5056736;28;20444;-84
2022/01/12 04:09:40;;;;;;;49.17;23.90;;;2.40;99.90;;;;;;5034064;28;20547;-88
2022/01/12 04:12:14;;;;;;;52.60;26.30;;;2.50;99.90;;;;;;5056583;28;20475;-87
2022/01/12 04:14:47;;;;;;;49.57;25.93;;;2.50;99.90;;;;;;5056987;28;20442;-86
2022/01/12 04:17:20;;;;;;;58.00;27.63;;;2.50;99.90;;;;;;5057031;28;20444;-88
2022/01/12 04:19:56;;;;;;;58.25;29.90;;;2.50;99.90;;;;;;5056644;28;20457;-84
2022/01/12 04:25:14;;;;;;;50.10;26.10;;;2.60;99.90;;;;;;5056600;28;20419;-88
2022/01/12 04:27:45;;;;;;;53.50;25.70;;;2.50;99.90;;;;;;5056593;28;20435;-86
2022/01/12 04:30:15;;;;;;;53.53;26.37;;;2.60;99.90;;;;;;5056211;28;20465;-86
2022/01/12 04:32:48;;;;;;;58.30;27.97;;;2.50;99.90;;;;;;5056604;28;20843;-89
2022/01/12 04:35:23;;;;;;;60.00;28.10;;;2.50;99.90;;;;;;5056377;28;20911;-90
2022/01/12 04:37:54;;;;;;;60.10;28.10;;;2.50;99.90;;;;;;5056639;28;20447;-87
2022/01/12 04:40:20;;;;;;;53.33;27.47;;;2.50;99.90;;;;;;5056168;28;20463;-88
2022/01/12 04:42:55;;;;;;;54.67;27.40;;;2.50;99.90;;;;;;5055952;28;20462;-87
2022/01/12 04:45:38;;;;;;;56.30;27.57;;;2.40;99.90;;;;;;5056286;28;20462;-86
2022/01/12 04:48:30;;;;;;;52.17;26.63;;;2.50;99.90;;;;;;5056551;28;20791;-88
2022/01/12 04:50:59;;;;;;;56.63;28.20;;;2.50;99.90;;;;;;5055768;28;20494;-88
2022/01/12 04:53:27;;;;;;;53.30;25.67;;;2.60;99.90;;;;;;5056672;28;20493;-86
2022/01/12 04:56:00;;;;;;;52.43;25.60;;;2.70;99.90;;;;;;5055503;28;20432;-86
2022/01/12 04:58:30;;;;;;;53.17;27.37;;;2.70;99.90;;;;;;5055780;28;20455;-87
2022/01/12 05:01:06;;;;;;;58.73;27.33;;;2.60;99.90;;;;;;5056449;28;20442;-88
2022/01/12 05:09:47;;;;;;;61.40;26.90;;;2.70;99.90;;;;;;4994593;28;20525;-87
2022/01/12 05:15:15;;;;;;;52.63;25.33;;;2.70;99.90;;;;;;5055678;28;20431;-87
2022/01/12 05:17:44;;;;;;;55.03;26.80;;;2.80;99.90;;;;;;5038048;28;20787;-85
2022/01/12 05:20:20;;;;;;;59.87;27.83;;;2.70;99.90;;;;;;5056272;28;20436;-87
2022/01/12 05:22:49;;;;;;;54.57;27.80;;;2.80;99.90;;;;;;5055378;28;20428;-87
2022/01/12 05:25:19;;;;;;;53.57;26.23;;;2.90;99.90;;;;;;5055767;28;20871;-89
2022/01/12 05:27:53;;;;;;;57.13;28.47;;;2.90;99.90;;;;;;5055594;28;20444;-87
2022/01/12 05:30:25;;;;;;;64.23;29.13;;;2.80;99.90;;;;;;5037491;28;20840;-86
2022/01/12 05:32:53;;;;;;;60.57;29.27;;;2.80;99.90;;;;;;5055327;28;20490;-86
2022/01/12 05:35:24;;;;;;;54.13;27.10;;;2.80;99.90;;;;;;5055342;28;20773;-85
2022/01/12 05:37:54;;;;;;;57.90;27.77;;;2.70;99.90;;;;;;5055508;28;20438;-87
2022/01/12 05:40:32;;;;;;;53.90;27.60;;;2.80;99.90;;;;;;5037954;28;20525;-91
2022/01/12 05:43:05;;;;;;;63.43;29.03;;;2.90;99.90;;;;;;5055129;28;20434;-87
2022/01/12 05:45:44;;;;;;;58.07;28.73;;;3.00;99.90;;;;;;5055585;28;20447;-88
2022/01/12 05:50:58;;;;;;;59.53;28.13;;;3.00;99.90;;;;;;5055048;28;20434;-88
2022/01/12 05:53:30;;;;;;;62.77;26.67;;;3.00;99.90;;;;;;5055417;28;20443;-88
2022/01/12 05:56:03;;;;;;;55.13;27.13;;;3.00;99.90;;;;;;5054620;28;20432;-87
2022/01/12 05:58:33;;;;;;;57.17;27.50;;;3.10;99.90;;;;;;5037153;28;20448;-89
2022/01/12 06:01:21;;;;;;;59.50;29.40;;;3.10;99.90;;;;;;5054628;28;20523;-87
2022/01/12 06:03:50;;;;;;;63.13;27.80;;;3.10;99.90;;;;;;5016812;28;20861;-89
2022/01/12 06:06:23;;;;;;;57.50;28.07;;;3.00;99.90;;;;;;5035089;28;20428;-88
2022/01/12 06:08:52;;;;;;;53.73;28.27;;;3.00;99.90;;;;;;5035086;28;20435;-88
2022/01/12 06:11:24;;;;;;;59.33;28.47;;;2.90;99.90;;;;;;5034743;28;20435;-89
2022/01/12 06:13:57;;;;;;;63.73;29.13;;;2.90;99.90;;;;;;5034695;28;20454;-88
2022/01/12 06:16:29;;;;;;;61.43;28.70;;;2.90;99.90;;;;;;5033851;28;20539;-91
2022/01/12 06:19:06;;;;;;;60.90;29.40;;;3.00;99.90;;;;;;5017217;28;20965;-88
2022/01/12 06:21:33;;;;;;;57.57;29.23;;;3.10;99.90;;;;;;5034981;28;20464;-86
2022/01/12 06:24:03;;;;;;;61.87;29.50;;;3.20;99.90;;;;;;5034649;28;20448;-90
2022/01/12 06:26:49;;;;;;;74.22;38.22;;;3.20;99.90;;;;;;5034164;28;20423;-87
2022/01/12 06:29:38;;;;;;;64.87;32.53;;;3.30;99.90;;;;;;5034955;28;20188;-86
2022/01/12 06:32:08;;;;;;;68.63;30.53;;;3.30;99.90;;;;;;5034296;28;20626;-86
2022/01/12 06:34:35;;;;;;;67.07;30.87;;;3.20;99.90;;;;;;5034831;28;20452;-85
2022/01/12 06:37:02;;;;;;;68.27;30.90;;;3.20;99.90;;;;;;5034949;28;20523;-88
2022/01/12 06:39:31;;;;;;;69.30;32.20;;;3.20;99.90;;;;;;5034612;28;20461;-88
2022/01/12 06:41:59;;;;;;;59.37;29.43;;;3.40;99.90;;;;;;5034858;28;20433;-86
2022/01/12 06:44:35;;;;;;;69.10;31.07;;;3.30;99.90;;;;;;5034722;28;20452;-87
2022/01/12 06:47:09;;;;;;;66.10;30.90;;;3.30;99.90;;;;;;5034512;28;21035;-88
2022/01/12 06:49:37;;;;;;;60.00;29.33;;;3.30;99.90;;;;;;5034776;28;20456;-88
2022/01/12 06:52:05;;;;;;;64.10;30.90;;;3.40;99.90;;;;;;5034147;28;20499;-88
2022/01/12 06:54:35;;;;;;;68.57;30.47;;;3.50;99.90;;;;;;5034332;28;20522;-87
2022/01/12 06:57:16;;;;;;;66.63;29.57;;;3.40;99.90;;;;;;5034245;28;20456;-88
2022/01/12 06:59:56;;;;;;;70.73;30.63;;;3.50;99.90;;;;;;5034452;28;20191;-89
2022/01/12 07:02:30;;;;;;;68.43;30.93;;;3.60;99.90;;;;;;5034722;28;20914;-88
2022/01/12 07:05:02;;;;;;;69.83;31.03;;;3.70;99.90;;;;;;5034531;28;20513;-89
2022/01/12 07:07:31;;;;;;;73.53;31.23;;;3.70;99.90;;;;;;5034131;28;20528;-90
2022/01/12 07:10:02;;;;;;;90.78;45.40;;;3.70;99.90;;;;;;5015540;28;20435;-88
2022/01/12 07:12:32;;;;;;;70.43;33.20;;;3.80;99.90;;;;;;5034681;28;20261;-86
2022/01/12 07:14:59;;;;;;;70.63;32.53;;;3.70;99.90;;;;;;5034222;28;20206;-87
2022/01/12 07:17:33;;;;;;;69.63;31.80;;;3.80;99.90;;;;;;5034218;28;20187;-88
2022/01/12 07:20:03;;;;;;;72.90;32.27;;;3.80;99.90;;;;;;5016286;28;20437;-88
2022/01/12 07:22:36;;;;;;;76.60;32.67;;;3.70;99.90;;;;;;5034322;28;20195;-87
2022/01/12 07:25:06;;;;;;;77.50;32.80;;;3.60;99.90;;;;;;5016416;28;20471;-88
2022/01/12 07:27:36;;;;;;;77.40;33.33;;;3.60;99.90;;;;;;5033856;28;20448;-87
2022/01/12 07:30:10;;;;;;;73.33;32.00;;;3.50;99.90;;;;;;5034372;28;20444;-87
2022/01/12 07:32:40;;;;;;;71.77;31.90;;;3.60;99.90;;;;;;5033971;28;20475;-87
2022/01/12 07:35:13;;;;;;;69.70;30.67;;;3.50;99.90;;;;;;5037407;28;20806;-86
2022/01/12 07:37:40;;;;;;;74.63;32.90;;;3.50;99.90;;;;;;5033841;28;20464;-87
2022/01/12 07:40:13;;;;;;;76.33;33.43;;;3.50;99.90;;;;;;5034068;28;20463;-89
2022/01/12 07:42:46;;;;;;;72.60;32.53;;;3.40;99.90;;;;;;5034110;28;20456;-87
2022/01/12 07:45:13;;;;;;;77.77;34.03;;;3.60;99.90;;;;;;5033567;28;20430;-88
2022/01/12 07:47:43;;;;;;;75.57;32.13;;;3.70;99.90;;;;;;5034043;28;20452;-86
2022/01/12 07:50:15;;;;;;;75.43;33.00;;;3.70;99.90;;;;;;5034453;28;20432;-87
2022/01/12 07:52:44;;;;;;;100.07;47.90;;;3.60;99.90;;;;;;5032560;28;20482;-89
2022/01/12 07:55:15;;;;;;;84.57;37.77;;;3.80;99.90;;;;;;5016480;28;20191;-86
2022/01/12 07:57:43;;;;;;;81.20;35.50;;;3.90;99.90;;;;;;5033768;28;20547;-88
2022/01/12 08:00:11;;;;;;;75.30;33.70;;;3.80;99.90;;;;;;5033360;28;20464;-86
2022/01/12 08:02:50;;;;;;;74.03;33.80;;;3.70;99.90;;;;;;5033976;28;20459;-87
2022/01/12 08:05:22;;;;;;;86.77;33.70;;;3.60;99.90;;;;;;5033788;28;20476;-87
2022/01/12 08:08:12;;;;;;;75.97;32.90;;;3.60;99.90;;;;;;5035332;28;20453;-87
2022/01/12 08:10:39;;;;;;;80.10;32.77;;;3.60;99.90;;;;;;5053379;28;20554;-83
2022/01/12 08:13:07;;;;;;;79.00;33.63;;;3.70;99.90;;;;;;5053526;28;20470;-87
2022/01/12 08:15:37;;;;;;;71.27;34.73;;;3.80;99.90;;;;;;5053246;28;20463;-88
2022/01/12 08:18:11;;;;;;;78.00;32.80;;;3.70;99.90;;;;;;5053144;28;20661;-88
2022/01/12 08:20:46;;;;;;;78.57;35.60;;;3.70;99.90;;;;;;5053279;28;20960;-87
2022/01/12 08:23:14;;;;;;;85.23;34.70;;;3.80;99.90;;;;;;5053595;28;20554;-88
2022/01/12 08:25:41;;;;;;;81.77;34.13;;;3.90;99.90;;;;;;5054127;28;20447;-88
2022/01/12 08:28:11;;;;;;;80.20;34.60;;;3.90;99.90;;;;;;5057413;28;20209;-83
2022/01/12 08:30:41;;;;;;;80.93;33.90;;;4.10;99.90;;;;;;5039287;28;20470;-87
2022/01/12 08:33:11;;;;;;;86.70;35.53;;;4.10;99.90;;;;;;5056571;28;20490;-86
2022/01/12 08:35:44;;;;;;;109.93;49.45;;;4.10;99.90;;;;;;5054908;28;20516;-87
2022/01/12 08:38:16;;;;;;;95.53;38.00;;;4.40;99.90;;;;;;5056439;28;20198;-87
2022/01/12 08:40:44;;;;;;;88.73;35.10;;;4.50;99.90;;;;;;5056794;28;20226;-86
2022/01/12 08:43:13;;;;;;;85.17;34.60;;;4.40;99.90;;;;;;5039313;28;20187;-87
2022/01/12 08:45:42;;;;;;;86.40;35.90;;;4.20;99.90;;;;;;5057279;28;20554;-87
2022/01/12 08:48:14;;;;;;;83.77;36.50;;;4.30;99.90;;;;;;5036728;28;20654;-89
2022/01/12 08:50:44;;;;;;;91.10;35.13;;;4.30;99.90;;;;;;5036639;28;20452;-86
2022/01/12 08:53:11;;;;;;;87.73;35.57;;;4.40;99.90;;;;;;5036412;28;20253;-87
2022/01/12 08:55:41;;;;;;;111.88;45.72;;;4.40;99.90;;;;;;5035992;28;20445;-87
2022/01/12 08:58:14;;;;;;;93.50;36.07;;;4.50;99.90;;;;;;5036542;28;20551;-88
2022/01/12 09:00:41;;;;;;;92.97;38.17;;;4.60;99.90;;;;;;5049789;28;20206;-87
2022/01/12 09:03:09;;;;;;;94.20;36.37;;;4.60;99.90;;;;;;5056335;28;20281;-86
2022/01/12 09:05:49;;;;;;;93.97;37.03;;;4.50;99.90;;;;;;5056195;28;20244;-89
2022/01/12 09:08:22;;;;;;;101.73;36.93;;;4.50;99.90;;;;;;5056201;28;20260;-88
2022/01/12 09:10:56;;;;;;;98.33;37.43;;;4.60;99.90;;;;;;5055932;28;20203;-85
2022/01/12 09:13:24;;;;;;;95.70;36.37;;;4.50;99.90;;;;;;5056189;28;20245;-89
2022/01/12 09:15:50;;;;;;;96.57;37.47;;;4.50;99.90;;;;;;5056314;28;20222;-90
2022/01/12 09:18:18;;;;;;;134.10;54.58;;;4.70;99.90;;;;;;5054498;28;20430;-90
2022/01/12 09:20:50;;;;;;;107.60;41.40;;;4.90;99.90;;;;;;5056165;28;20297;-89
2022/01/12 09:23:20;;;;;;;100.03;39.20;;;4.80;99.90;;;;;;5057359;28;20207;-86
2022/01/12 09:25:47;;;;;;;106.23;39.17;;;4.90;99.90;;;;;;5058084;28;20277;-87
2022/01/12 09:28:14;;;;;;;88.90;33.60;;;4.80;99.90;;;;;;5057208;28;20199;-85
2022/01/12 09:30:42;;;;;;;98.83;35.33;;;4.70;99.90;;;;;;5056419;28;20229;-84
2022/01/12 09:33:15;;;;;;;93.90;34.50;;;4.60;99.90;;;;;;5053609;28;20210;-82
2022/01/12 09:35:50;;;;;;;95.60;34.83;;;4.60;99.90;;;;;;5054251;28;20209;-82
2022/01/12 09:38:21;;;;;;;104.75;42.97;;;4.60;99.90;;;;;;5035305;28;20440;-82
2022/01/12 09:40:53;;;;;;;93.37;37.50;;;4.60;99.90;;;;;;5054065;28;20222;-83
2022/01/12 09:43:28;;;;;;;92.03;37.17;;;4.60;99.90;;;;;;5019711;28;20268;-83
2022/01/12 09:45:55;;;;;;;93.40;36.40;;;4.60;99.90;;;;;;5055734;28;20232;-82
2022/01/12 09:48:26;;;;;;;92.07;38.63;;;4.70;99.90;;;;;;5047499;28;20207;-82
2022/01/12 09:50:56;;;;;;;100.93;36.87;;;4.80;99.90;;;;;;5053167;28;20551;-83
2022/01/12 09:53:24;;;;;;;89.07;34.93;;;4.70;99.90;;;;;;5038280;28;20226;-85
2022/01/12 09:55:54;;;;;;;88.97;35.10;;;4.80;99.90;;;;;;5056704;28;20576;-81
2022/01/12 09:58:21;;;;;;;90.97;37.60;;;4.80;99.90;;;;;;5055778;28;20289;-79
2022/01/12 10:00:56;;;;;;;101.63;48.70;;;4.70;99.90;;;;;;5037217;28;20426;-88
2022/01/12 10:03:27;;;;;;;102.37;42.83;;;4.70;99.90;;;;;;5050728;28;20208;-85
2022/01/12 10:05:58;;;;;;;97.57;41.73;;;4.70;99.90;;;;;;5054599;28;20646;-88
2022/01/12 10:08:26;;;;;;;104.03;39.53;;;4.70;99.90;;;;;;5054637;28;20198;-85
2022/01/12 10:11:05;;;;;;;96.10;37.93;;;4.80;99.90;;;;;;5054589;28;20195;-84
2022/01/12 10:13:33;;;;;;;102.03;39.70;;;4.80;99.90;;;;;;5054150;28;20226;-83
2022/01/12 10:16:12;;;;;;;99.20;39.47;;;4.90;99.90;;;;;;5052028;28;20203;-81
2022/01/12 10:18:49;;;;;;;96.30;37.83;;;5.10;99.90;;;;;;5054230;28;20313;-82
2022/01/12 10:21:37;;;;;;;108.20;43.53;;;5.10;99.90;;;;;;5054135;28;20433;-84
2022/01/12 10:24:07;;;;;;;104.23;39.30;;;4.90;99.90;;;;;;5054600;28;20237;-86
2022/01/12 10:26:40;;;;;;;100.50;39.77;;;5.10;99.90;;;;;;5054401;28;20202;-86
2022/01/12 10:29:11;;;;;;;100.07;39.30;;;5.10;99.90;;;;;;5054200;28;20207;-82
2022/01/12 10:31:52;;;;;;;98.83;39.57;;;5.10;99.90;;;;;;5050436;28;20260;-83
2022/01/12 10:34:22;;;;;;;108.67;40.30;;;5.20;99.90;;;;;;5052710;28;20226;-80
2022/01/12 10:36:53;;;;;;;103.37;39.07;;;5.20;99.90;;;;;;5053796;28;20207;-84
2022/01/12 10:39:29;;;;;;;101.83;38.93;;;5.20;99.90;;;;;;5054309;28;20187;-84
2022/01/12 10:42:05;;;;;;;110.00;41.00;;;5.30;99.90;;;;;;5055869;28;20224;-84
2022/01/12 10:44:35;;;;;;;102.27;40.60;;;5.40;99.90;;;;;;5059360;28;20653;-85
2022/01/12 10:47:11;;;;;;;100.73;40.80;;;5.50;99.90;;;;;;5058214;28;20214;-84
2022/01/12 10:49:41;;;;;;;111.33;42.10;;;5.50;99.90;;;;;;5038388;28;20293;-86
2022/01/12 10:52:13;;;;;;;100.77;39.73;;;5.60;99.90;;;;;;5037806;28;20585;-83
2022/01/12 10:54:44;;;;;;;111.73;41.90;;;5.70;99.90;;;;;;5034211;28;20234;-85
2022/01/12 10:57:23;;;;;;;104.93;40.80;;;5.80;99.90;;;;;;5034174;28;20203;-86
2022/01/12 11:00:18;;;;;;;102.17;41.03;;;6.00;99.90;;;;;;5031896;28;20211;-85
2022/01/12 11:02:46;;;;;;;103.20;41.03;;;6.00;99.90;;;;;;5037073;28;20203;-92
2022/01/12 11:05:13;;;;;;;114.85;49.88;;;6.10;99.90;;;;;;5064475;28;20430;-88
2022/01/12 11:07:44;;;;;;;104.43;43.03;;;5.90;99.90;;;;;;5053981;28;20217;-86
2022/01/12 11:10:11;;;;;;;103.53;42.60;;;5.90;99.90;;;;;;5053813;28;20199;-91
2022/01/12 11:12:44;;;;;;;100.60;39.93;;;5.80;99.90;;;;;;5053272;28;20205;-84
2022/01/12 11:15:14;;;;;;;104.77;43.37;;;5.90;99.90;;;;;;5053941;28;20210;-88
2022/01/12 11:17:50;;;;;;;103.60;41.10;;;5.90;99.90;;;;;;5053837;28;20217;-92
2022/01/12 11:20:21;;;;;;;96.23;37.57;;;6.00;99.90;;;;;;5056543;28;20206;-89
2022/01/12 11:23:00;;;;;;;85.07;35.67;;;5.60;99.90;;;;;;5054468;28;20264;-90
2022/01/12 11:25:31;;;;;;;126.93;56.65;;;5.60;99.90;;;;;;5053698;28;20422;-91
2022/01/12 11:28:15;;;;;;;113.77;41.13;;;5.50;99.90;;;;;;5054522;28;20190;-89
2022/01/12 11:30:46;;;;;;;93.73;37.03;;;5.60;99.90;;;;;;5054545;28;20226;-91
2022/01/12 11:33:14;;;;;;;99.50;36.73;;;5.50;99.90;;;;;;5053989;28;20298;-87
2022/01/12 11:35:44;;;;;;;89.83;34.50;;;5.40;99.90;;;;;;5053803;28;20277;-88
2022/01/12 11:38:29;;;;;;;87.43;34.07;;;5.10;99.90;;;;;;5054208;28;20190;-84
2022/01/12 11:41:11;;;;;;;84.50;35.60;;;5.20;99.90;;;;;;5052872;28;20226;-84
2022/01/12 11:43:45;;;;;;;115.55;51.15;;;5.10;99.90;;;;;;5050559;28;20464;-84
2022/01/12 11:46:15;;;;;;;95.73;39.97;;;5.30;99.90;;;;;;5051829;28;20190;-83
2022/01/12 11:48:46;;;;;;;100.03;39.40;;;5.60;99.90;;;;;;5048795;28;20202;-85
2022/01/12 11:51:17;;;;;;;97.40;38.37;;;5.80;99.90;;;;;;5051615;28;20195;-82
2022/01/12 11:53:51;;;;;;;102.73;38.80;;;5.70;99.90;;;;;;5046803;28;20248;-82
2022/01/12 11:56:21;;;;;;;101.60;38.93;;;5.80;99.90;;;;;;5050635;28;20551;-83
2022/01/12 11:58:55;;;;;;;122.67;39.80;;;5.80;99.90;;;;;;5050329;28;21237;-84
2022/01/12 12:01:23;;;;;;;101.03;39.93;;;5.80;99.90;;;;;;5052017;28;20216;-83
2022/01/12 12:04:04;;;;;;;112.50;38.57;;;5.80;99.90;;;;;;5038552;28;20624;-84
2022/01/12 12:06:32;;;;;;;102.17;37.30;;;5.80;99.90;;;;;;5056331;28;20183;-85
2022/01/12 12:09:05;;;;;;;102.40;36.33;;;5.60;99.90;;;;;;5038600;28;20186;-88
2022/01/12 12:11:34;;;;;;;102.80;35.43;;;5.70;99.90;;;;;;5057299;28;20309;-89
2022/01/12 12:14:09;;;;;;;93.07;35.77;;;5.70;99.90;;;;;;5058111;28;20219;-89
2022/01/12 12:16:44;;;;;;;162.60;35.10;;;5.70;99.90;;;;;;5056933;28;20209;-88
2022/01/12 12:19:16;;;;;;;97.53;31.27;;;5.70;99.90;;;;;;5057510;28;20217;-90
2022/01/12 12:21:48;;;;;;;106.70;35.03;;;5.80;99.90;;;;;;5057909;28;20549;-90
2022/01/12 12:24:22;;;;;;;143.67;34.57;;;5.70;99.90;;;;;;5039569;28;20614;-90
2022/01/12 12:26:55;;;;;;;114.50;34.63;;;5.80;99.90;;;;;;5056856;28;20202;-91
2022/01/12 12:29:26;;;;;;;131.43;34.03;;;5.80;99.90;;;;;;5057188;28;20577;-90
2022/01/12 12:31:56;;;;;;;142.83;35.10;;;5.70;99.90;;;;;;5057771;28;20195;-88
2022/01/12 12:34:25;;;;;;;203.73;36.73;;;5.70;99.90;;;;;;5057245;28;20240;-86
2022/01/12 12:37:05;;;;;;;151.27;36.00;;;5.70;99.90;;;;;;5056149;28;20206;-85
2022/01/12 12:39:38;;;;;;;113.23;37.83;;;5.60;99.90;;;;;;5056420;28;20430;-86
2022/01/12 12:42:17;;;;;;;155.33;36.23;;;5.70;99.90;;;;;;5056661;28;20209;-88
2022/01/12 12:44:44;;;;;;;163.70;37.80;;;5.60;99.90;;;;;;5056787;28;20216;-85
2022/01/12 12:47:19;;;;;;;174.00;35.70;;;5.80;99.90;;;;;;5056270;28;20233;-87
2022/01/12 12:49:48;;;;;;;163.63;36.60;;;5.90;99.90;;;;;;5054962;28;20205;-88
2022/01/12 12:52:24;;;;;;;176.27;32.03;;;5.80;99.90;;;;;;5039609;28;20214;-90
2022/01/12 12:54:55;;;;;;;156.90;32.77;;;5.90;99.90;;;;;;5041045;28;20241;-91
2022/01/12 12:57:22;;;;;;;208.10;32.57;;;5.80;99.90;;;;;;5058094;28;20203;-87
2022/01/12 12:59:51;;;;;;;100.83;28.40;;;5.70;99.90;;;;;;5056462;28;20195;-82
2022/01/12 13:02:19;;;;;;;167.23;31.43;;;5.80;99.90;;;;;;5055371;28;20210;-77
2022/01/12 13:04:48;;;;;;;204.80;30.87;;;5.70;99.90;;;;;;5055025;28;20646;-82
2022/01/12 13:07:24;;;;;;;184.67;32.37;;;5.80;99.90;;;;;;5056221;28;20217;-88
2022/01/12 13:09:50;;;;;;;154.27;31.43;;;5.70;99.90;;;;;;5056296;28;20198;-87
2022/01/12 13:12:36;;;;;;;224.37;32.93;;;5.70;99.90;;;;;;5055897;28;20198;-85
2022/01/12 13:15:08;;;;;;;200.53;34.00;;;5.70;99.90;;;;;;5038312;28;20234;-89
2022/01/12 13:17:41;;;;;;;240.80;32.03;;;5.60;99.90;;;;;;5056033;28;20259;-86
2022/01/12 13:23:09;;;;;;;232.97;37.77;;;5.80;99.90;;;;;;5056401;28;20607;-86
2022/01/12 13:25:39;;;;;;;239.33;35.87;;;5.90;99.90;;;;;;5056040;28;20217;-84
2022/01/12 13:28:09;;;;;;;195.80;33.67;;;6.00;99.90;;;;;;5037536;28;20202;-87
2022/01/12 13:30:48;;;;;;;131.27;33.93;;;5.90;99.90;;;;;;5055473;28;20206;-87
2022/01/12 13:33:28;;;;;;;256.17;34.37;;;5.70;99.90;;;;;;5056040;28;20210;-88
2022/01/12 13:35:58;;;;;;;169.30;33.17;;;5.90;99.90;;;;;;5056800;28;20203;-88
2022/01/12 13:38:27;;;;;;;235.07;32.53;;;6.10;99.90;;;;;;5055335;28;20453;-86
2022/01/12 13:40:55;;;;;;;214.57;34.63;;;5.90;99.90;;;;;;5056467;28;20230;-85
2022/01/12 13:43:24;;;;;;;187.07;37.47;;;5.90;99.90;;;;;;5055055;28;20228;-82
2022/01/12 13:46:00;;;;;;;141.57;35.63;;;6.00;99.90;;;;;;5054107;28;20207;-82
2022/01/12 13:48:30;;;;;;;133.43;35.00;;;6.00;99.90;;;;;;5054447;28;20346;-84
2022/01/12 13:50:59;;;;;;;137.67;37.53;;;5.90;99.90;;;;;;5053923;28;20297;-80
2022/01/12 13:53:32;;;;;;;162.67;34.60;;;5.80;99.90;;;;;;5054272;28;20284;-81
2022/01/12 13:55:59;;;;;;;175.77;34.67;;;5.80;99.90;;;;;;5053932;28;20599;-81
2022/01/12 13:58:29;;;;;;;147.57;35.27;;;6.10;99.90;;;;;;5054158;28;20668;-82
2022/01/12 14:01:00;;;;;;;122.00;35.63;;;6.10;99.90;;;;;;5054538;28;20681;-82
2022/01/12 14:03:27;;;;;;;140.57;35.63;;;6.20;99.90;;;;;;5054440;28;20260;-83
2022/01/12 14:05:59;;;;;;;153.37;33.33;;;6.00;99.90;;;;;;5036932;28;20206;-83
2022/01/12 14:08:39;;;;;;;108.97;35.83;;;5.70;99.90;;;;;;5054535;28;20202;-86
2022/01/12 14:11:06;;;;;;;124.17;36.77;;;5.60;99.90;;;;;;5054251;28;20624;-83